sensor_id;sensor_type;location;lat;lon;timestamp;P1;durP1;ratioP1;P2;durP2;ratioP2
37715;SDS011;23562;50.540;12.504;2023-01-28T00:01:07;68.38;;;27.08;;
37715;SDS011;23562;50.540;12.504;2023-01-28T00:03:33;78.13;;;29.98;;
37715;SDS011;23562;50.540;12.504;2023-01-28T00:06:17;70.82;;;28.70;;
37715;SDS011;23562;50.540;12.504;2023-01-28T00:08:43;65.90;;;26.63;;
37715;SDS011;23562;50.540;12.504;2023-01-28T00:11:09;68.60;;;28.52;;
37715;SDS011;23562;50.540;12.504;2023-01-28T00:13:34;75.72;;;29.38;;
37715;SDS011;23562;50.540;12.504;2023-01-28T00:16:00;72.32;;;28.02;;
37715;SDS011;23562;50.540;12.504;2023-01-28T00:18:26;73.63;;;29.10;;
37715;SDS011;23562;50.540;12.504;2023-01-28T00:21:25;66.70;;;27.35;;
37715;SDS011;23562;50.540;12.504;2023-01-28T00:23:46;73.70;;;27.45;;
37715;SDS011;23562;50.540;12.504;2023-01-28T00:26:33;71.78;;;27.73;;
37715;SDS011;23562;50.540;12.504;2023-01-28T00:38:23;62.60;;;24.77;;
37715;SDS011;23562;50.540;12.504;2023-01-28T00:40:48;65.20;;;25.55;;
37715;SDS011;23562;50.540;12.504;2023-01-28T00:43:13;65.45;;;26.55;;
37715;SDS011;23562;50.540;12.504;2023-01-28T00:45:39;72.45;;;26.83;;
37715;SDS011;23562;50.540;12.504;2023-01-28T00:48:04;69.40;;;27.48;;
37715;SDS011;23562;50.540;12.504;2023-01-28T00:50:30;73.45;;;25.75;;
37715;SDS011;23562;50.540;12.504;2023-01-28T00:52:55;68.20;;;25.55;;
37715;SDS011;23562;50.540;12.504;2023-01-28T00:55:20;66.72;;;25.63;;
37715;SDS011;23562;50.540;12.504;2023-01-28T00:57:46;69.60;;;25.10;;
37715;SDS011;23562;50.540;12.504;2023-01-28T01:00:11;74.07;;;27.65;;
37715;SDS011;23562;50.540;12.504;2023-01-28T01:02:36;61.03;;;23.60;;
37715;SDS011;23562;50.540;12.504;2023-01-28T01:05:01;65.10;;;26.87;;
37715;SDS011;23562;50.540;12.504;2023-01-28T01:07:27;71.95;;;27.58;;
37715;SDS011;23562;50.540;12.504;2023-01-28T01:10:05;70.75;;;27.45;;
37715;SDS011;23562;50.540;12.504;2023-01-28T01:12:31;70.88;;;25.13;;
37715;SDS011;23562;50.540;12.504;2023-01-28T01:14:56;71.10;;;26.07;;
37715;SDS011;23562;50.540;12.504;2023-01-28T01:17:21;67.97;;;25.40;;
37715;SDS011;23562;50.540;12.504;2023-01-28T01:19:46;72.23;;;24.67;;
37715;SDS011;23562;50.540;12.504;2023-01-28T01:22:11;65.97;;;24.80;;
37715;SDS011;23562;50.540;12.504;2023-01-28T01:24:37;64.72;;;24.58;;
37715;SDS011;23562;50.540;12.504;2023-01-28T01:27:02;55.30;;;23.07;;
37715;SDS011;23562;50.540;12.504;2023-01-28T01:29:30;60.80;;;23.77;;
37715;SDS011;23562;50.540;12.504;2023-01-28T01:31:55;60.47;;;24.60;;
37715;SDS011;23562;50.540;12.504;2023-01-28T01:34:20;59.47;;;24.38;;
37715;SDS011;23562;50.540;12.504;2023-01-28T01:36:45;58.40;;;24.23;;
37715;SDS011;23562;50.540;12.504;2023-01-28T01:39:11;57.47;;;23.38;;
37715;SDS011;23562;50.540;12.504;2023-01-28T01:41:36;53.85;;;22.92;;
37715;SDS011;23562;50.540;12.504;2023-01-28T01:44:02;54.40;;;23.38;;
37715;SDS011;23562;50.540;12.504;2023-01-28T01:46:36;55.90;;;23.65;;
37715;SDS011;23562;50.540;12.504;2023-01-28T01:49:05;77.28;;;23.30;;
37715;SDS011;23562;50.540;12.504;2023-01-28T01:53:57;51.08;;;21.77;;
37715;SDS011;23562;50.540;12.504;2023-01-28T01:56:24;55.38;;;23.27;;
37715;SDS011;23562;50.540;12.504;2023-01-28T01:58:52;53.58;;;22.63;;
37715;SDS011;23562;50.540;12.504;2023-01-28T02:01:20;48.58;;;21.33;;
37715;SDS011;23562;50.540;12.504;2023-01-28T02:03:49;56.40;;;22.30;;
37715;SDS011;23562;50.540;12.504;2023-01-28T02:06:15;46.72;;;21.90;;
37715;SDS011;23562;50.540;12.504;2023-01-28T02:08:41;47.87;;;21.27;;
37715;SDS011;23562;50.540;12.504;2023-01-28T02:11:07;49.75;;;21.27;;
37715;SDS011;23562;50.540;12.504;2023-01-28T02:13:33;45.65;;;20.48;;
37715;SDS011;23562;50.540;12.504;2023-01-28T02:16:00;45.20;;;20.98;;
37715;SDS011;23562;50.540;12.504;2023-01-28T02:18:26;51.33;;;21.52;;
37715;SDS011;23562;50.540;12.504;2023-01-28T02:21:00;47.85;;;20.63;;
37715;SDS011;23562;50.540;12.504;2023-01-28T02:26:07;39.92;;;17.48;;
37715;SDS011;23562;50.540;12.504;2023-01-28T02:31:03;29.85;;;14.40;;
37715;SDS011;23562;50.540;12.504;2023-01-28T02:33:34;20.67;;;11.45;;
37715;SDS011;23562;50.540;12.504;2023-01-28T02:36:20;16.70;;;9.98;;
37715;SDS011;23562;50.540;12.504;2023-01-28T02:38:48;18.77;;;10.05;;
37715;SDS011;23562;50.540;12.504;2023-01-28T02:41:17;18.02;;;9.93;;
37715;SDS011;23562;50.540;12.504;2023-01-28T02:43:45;17.17;;;9.32;;
37715;SDS011;23562;50.540;12.504;2023-01-28T02:46:19;25.00;;;11.10;;
37715;SDS011;23562;50.540;12.504;2023-01-28T02:49:04;20.02;;;10.60;;
37715;SDS011;23562;50.540;12.504;2023-01-28T02:56:56;20.15;;;11.30;;
37715;SDS011;23562;50.540;12.504;2023-01-28T02:59:26;24.08;;;11.52;;
37715;SDS011;23562;50.540;12.504;2023-01-28T03:04:43;73.20;;;14.52;;
37715;SDS011;23562;50.540;12.504;2023-01-28T03:07:10;18.23;;;9.85;;
37715;SDS011;23562;50.540;12.504;2023-01-28T03:09:36;74.18;;;13.60;;
37715;SDS011;23562;50.540;12.504;2023-01-28T03:12:11;23.00;;;12.55;;
37715;SDS011;23562;50.540;12.504;2023-01-28T03:14:58;37.08;;;11.90;;
37715;SDS011;23562;50.540;12.504;2023-01-28T03:20:28;33.72;;;13.15;;
37715;SDS011;23562;50.540;12.504;2023-01-28T03:23:17;25.85;;;13.23;;
37715;SDS011;23562;50.540;12.504;2023-01-28T03:26:05;26.95;;;12.38;;
37715;SDS011;23562;50.540;12.504;2023-01-28T03:28:50;19.40;;;10.63;;
37715;SDS011;23562;50.540;12.504;2023-01-28T03:31:34;15.80;;;8.82;;
37715;SDS011;23562;50.540;12.504;2023-01-28T03:34:19;16.48;;;8.98;;
37715;SDS011;23562;50.540;12.504;2023-01-28T03:37:04;20.35;;;9.57;;
37715;SDS011;23562;50.540;12.504;2023-01-28T03:39:29;18.23;;;9.30;;
37715;SDS011;23562;50.540;12.504;2023-01-28T03:41:58;13.35;;;7.72;;
37715;SDS011;23562;50.540;12.504;2023-01-28T03:44:24;14.40;;;7.97;;
37715;SDS011;23562;50.540;12.504;2023-01-28T03:47:08;32.00;;;9.75;;
37715;SDS011;23562;50.540;12.504;2023-01-28T03:49:35;22.65;;;9.45;;
37715;SDS011;23562;50.540;12.504;2023-01-28T03:52:00;16.48;;;9.32;;
37715;SDS011;23562;50.540;12.504;2023-01-28T03:54:26;12.90;;;7.82;;
37715;SDS011;23562;50.540;12.504;2023-01-28T03:56:51;14.02;;;8.25;;
37715;SDS011;23562;50.540;12.504;2023-01-28T03:59:16;17.80;;;9.27;;
37715;SDS011;23562;50.540;12.504;2023-01-28T04:01:41;15.23;;;8.88;;
37715;SDS011;23562;50.540;12.504;2023-01-28T04:04:06;16.25;;;9.05;;
37715;SDS011;23562;50.540;12.504;2023-01-28T04:06:32;13.40;;;8.40;;
37715;SDS011;23562;50.540;12.504;2023-01-28T04:08:57;20.33;;;8.55;;
37715;SDS011;23562;50.540;12.504;2023-01-28T04:11:23;13.02;;;8.05;;
37715;SDS011;23562;50.540;12.504;2023-01-28T04:13:50;15.32;;;8.20;;
37715;SDS011;23562;50.540;12.504;2023-01-28T04:16:15;14.70;;;8.27;;
37715;SDS011;23562;50.540;12.504;2023-01-28T04:18:41;11.63;;;6.97;;
37715;SDS011;23562;50.540;12.504;2023-01-28T04:21:06;14.02;;;7.50;;
37715;SDS011;23562;50.540;12.504;2023-01-28T04:23:32;13.73;;;7.68;;
37715;SDS011;23562;50.540;12.504;2023-01-28T04:25:57;12.40;;;7.15;;
37715;SDS011;23562;50.540;12.504;2023-01-28T04:28:22;14.52;;;8.80;;
37715;SDS011;23562;50.540;12.504;2023-01-28T04:30:47;12.77;;;7.40;;
37715;SDS011;23562;50.540;12.504;2023-01-28T04:33:13;21.70;;;8.13;;
37715;SDS011;23562;50.540;12.504;2023-01-28T04:35:38;14.82;;;8.15;;
37715;SDS011;23562;50.540;12.504;2023-01-28T04:38:03;14.90;;;7.80;;
37715;SDS011;23562;50.540;12.504;2023-01-28T04:40:28;15.10;;;8.05;;
37715;SDS011;23562;50.540;12.504;2023-01-28T04:42:54;14.52;;;8.02;;
37715;SDS011;23562;50.540;12.504;2023-01-28T04:45:19;15.95;;;8.23;;
37715;SDS011;23562;50.540;12.504;2023-01-28T04:47:44;11.93;;;7.63;;
37715;SDS011;23562;50.540;12.504;2023-01-28T04:50:09;16.25;;;8.45;;
37715;SDS011;23562;50.540;12.504;2023-01-28T04:52:34;12.35;;;7.53;;
37715;SDS011;23562;50.540;12.504;2023-01-28T04:54:59;16.42;;;9.27;;
37715;SDS011;23562;50.540;12.504;2023-01-28T04:57:26;17.48;;;10.07;;
37715;SDS011;23562;50.540;12.504;2023-01-28T04:59:51;21.98;;;10.23;;
37715;SDS011;23562;50.540;12.504;2023-01-28T05:02:16;16.70;;;8.82;;
37715;SDS011;23562;50.540;12.504;2023-01-28T05:04:41;18.47;;;10.20;;
37715;SDS011;23562;50.540;12.504;2023-01-28T05:07:06;19.50;;;9.45;;
37715;SDS011;23562;50.540;12.504;2023-01-28T05:09:31;16.08;;;9.18;;
37715;SDS011;23562;50.540;12.504;2023-01-28T05:11:57;19.38;;;10.02;;
37715;SDS011;23562;50.540;12.504;2023-01-28T05:14:22;15.82;;;9.35;;
37715;SDS011;23562;50.540;12.504;2023-01-28T05:16:48;23.13;;;10.20;;
37715;SDS011;23562;50.540;12.504;2023-01-28T05:19:13;23.35;;;11.20;;
37715;SDS011;23562;50.540;12.504;2023-01-28T05:21:38;17.77;;;9.82;;
37715;SDS011;23562;50.540;12.504;2023-01-28T05:24:04;21.13;;;10.50;;
37715;SDS011;23562;50.540;12.504;2023-01-28T05:26:29;20.52;;;11.25;;
37715;SDS011;23562;50.540;12.504;2023-01-28T05:28:54;24.70;;;11.70;;
37715;SDS011;23562;50.540;12.504;2023-01-28T05:31:19;27.27;;;12.83;;
37715;SDS011;23562;50.540;12.504;2023-01-28T05:33:44;28.87;;;14.07;;
37715;SDS011;23562;50.540;12.504;2023-01-28T05:36:10;25.97;;;13.67;;
37715;SDS011;23562;50.540;12.504;2023-01-28T05:38:35;22.00;;;11.90;;
37715;SDS011;23562;50.540;12.504;2023-01-28T05:41:00;19.45;;;10.27;;
37715;SDS011;23562;50.540;12.504;2023-01-28T05:43:25;21.20;;;11.23;;
37715;SDS011;23562;50.540;12.504;2023-01-28T05:45:50;25.15;;;11.90;;
37715;SDS011;23562;50.540;12.504;2023-01-28T05:48:15;21.42;;;11.15;;
37715;SDS011;23562;50.540;12.504;2023-01-28T05:50:40;18.05;;;9.60;;
37715;SDS011;23562;50.540;12.504;2023-01-28T05:53:06;16.42;;;8.93;;
37715;SDS011;23562;50.540;12.504;2023-01-28T05:55:31;16.42;;;9.48;;
37715;SDS011;23562;50.540;12.504;2023-01-28T05:57:56;20.00;;;9.10;;
37715;SDS011;23562;50.540;12.504;2023-01-28T06:00:21;19.67;;;10.10;;
37715;SDS011;23562;50.540;12.504;2023-01-28T06:02:46;20.00;;;9.95;;
37715;SDS011;23562;50.540;12.504;2023-01-28T06:05:12;18.55;;;10.15;;
37715;SDS011;23562;50.540;12.504;2023-01-28T06:07:37;23.50;;;9.63;;
37715;SDS011;23562;50.540;12.504;2023-01-28T06:10:02;16.58;;;8.75;;
37715;SDS011;23562;50.540;12.504;2023-01-28T06:12:27;17.10;;;7.95;;
37715;SDS011;23562;50.540;12.504;2023-01-28T06:14:52;17.35;;;7.78;;
37715;SDS011;23562;50.540;12.504;2023-01-28T06:17:17;15.87;;;8.27;;
37715;SDS011;23562;50.540;12.504;2023-01-28T06:19:42;15.95;;;8.18;;
37715;SDS011;23562;50.540;12.504;2023-01-28T06:22:08;16.70;;;8.40;;
37715;SDS011;23562;50.540;12.504;2023-01-28T06:24:33;22.27;;;9.25;;
37715;SDS011;23562;50.540;12.504;2023-01-28T06:26:58;17.10;;;8.80;;
37715;SDS011;23562;50.540;12.504;2023-01-28T06:29:23;19.30;;;8.75;;
37715;SDS011;23562;50.540;12.504;2023-01-28T06:31:48;15.63;;;8.13;;
37715;SDS011;23562;50.540;12.504;2023-01-28T06:34:15;16.65;;;8.80;;
37715;SDS011;23562;50.540;12.504;2023-01-28T06:36:40;16.77;;;9.20;;
37715;SDS011;23562;50.540;12.504;2023-01-28T06:39:05;15.40;;;9.00;;
37715;SDS011;23562;50.540;12.504;2023-01-28T06:41:30;19.30;;;8.83;;
37715;SDS011;23562;50.540;12.504;2023-01-28T06:43:55;15.93;;;7.80;;
37715;SDS011;23562;50.540;12.504;2023-01-28T06:46:20;13.25;;;7.13;;
37715;SDS011;23562;50.540;12.504;2023-01-28T06:48:46;12.23;;;7.25;;
37715;SDS011;23562;50.540;12.504;2023-01-28T06:51:11;11.70;;;6.43;;
37715;SDS011;23562;50.540;12.504;2023-01-28T06:53:36;13.90;;;6.32;;
37715;SDS011;23562;50.540;12.504;2023-01-28T06:56:01;11.38;;;6.47;;
37715;SDS011;23562;50.540;12.504;2023-01-28T06:58:26;13.80;;;6.53;;
37715;SDS011;23562;50.540;12.504;2023-01-28T07:00:52;12.68;;;6.28;;
37715;SDS011;23562;50.540;12.504;2023-01-28T07:03:17;12.05;;;7.18;;
37715;SDS011;23562;50.540;12.504;2023-01-28T07:05:42;14.10;;;6.37;;
37715;SDS011;23562;50.540;12.504;2023-01-28T07:08:08;13.38;;;6.70;;
37715;SDS011;23562;50.540;12.504;2023-01-28T07:10:33;11.18;;;6.53;;
37715;SDS011;23562;50.540;12.504;2023-01-28T07:12:58;18.40;;;8.52;;
37715;SDS011;23562;50.540;12.504;2023-01-28T07:15:23;15.93;;;8.95;;
37715;SDS011;23562;50.540;12.504;2023-01-28T07:17:48;17.02;;;9.25;;
37715;SDS011;23562;50.540;12.504;2023-01-28T07:20:13;11.98;;;7.20;;
37715;SDS011;23562;50.540;12.504;2023-01-28T07:22:39;10.82;;;6.63;;
37715;SDS011;23562;50.540;12.504;2023-01-28T07:25:05;12.13;;;6.50;;
37715;SDS011;23562;50.540;12.504;2023-01-28T07:27:31;14.25;;;6.88;;
37715;SDS011;23562;50.540;12.504;2023-01-28T07:29:56;18.57;;;8.03;;
37715;SDS011;23562;50.540;12.504;2023-01-28T07:32:21;12.73;;;7.43;;
37715;SDS011;23562;50.540;12.504;2023-01-28T07:34:46;11.97;;;6.60;;
37715;SDS011;23562;50.540;12.504;2023-01-28T07:37:11;15.23;;;7.90;;
37715;SDS011;23562;50.540;12.504;2023-01-28T07:39:36;26.88;;;12.85;;
37715;SDS011;23562;50.540;12.504;2023-01-28T07:42:01;24.60;;;10.50;;
37715;SDS011;23562;50.540;12.504;2023-01-28T07:44:27;43.45;;;16.95;;
37715;SDS011;23562;50.540;12.504;2023-01-28T07:46:52;33.58;;;18.15;;
37715;SDS011;23562;50.540;12.504;2023-01-28T07:49:18;22.00;;;10.57;;
37715;SDS011;23562;50.540;12.504;2023-01-28T07:51:43;26.10;;;11.65;;
37715;SDS011;23562;50.540;12.504;2023-01-28T07:54:10;16.92;;;8.73;;
37715;SDS011;23562;50.540;12.504;2023-01-28T07:56:36;31.03;;;16.53;;
37715;SDS011;23562;50.540;12.504;2023-01-28T07:59:01;97.67;;;37.83;;
37715;SDS011;23562;50.540;12.504;2023-01-28T08:01:26;55.67;;;19.08;;
37715;SDS011;23562;50.540;12.504;2023-01-28T08:03:51;65.70;;;27.92;;
37715;SDS011;23562;50.540;12.504;2023-01-28T08:06:16;94.53;;;30.87;;
37715;SDS011;23562;50.540;12.504;2023-01-28T08:08:41;125.45;;;40.38;;
37715;SDS011;23562;50.540;12.504;2023-01-28T08:11:07;117.40;;;39.93;;
37715;SDS011;23562;50.540;12.504;2023-01-28T08:13:33;67.85;;;27.42;;
37715;SDS011;23562;50.540;12.504;2023-01-28T08:15:58;120.50;;;43.13;;
37715;SDS011;23562;50.540;12.504;2023-01-28T08:18:23;109.07;;;39.50;;
37715;SDS011;23562;50.540;12.504;2023-01-28T08:20:48;47.33;;;22.37;;
37715;SDS011;23562;50.540;12.504;2023-01-28T08:23:18;24.95;;;11.77;;
37715;SDS011;23562;50.540;12.504;2023-01-28T08:25:44;24.40;;;13.20;;
37715;SDS011;23562;50.540;12.504;2023-01-28T08:28:10;27.27;;;13.95;;
37715;SDS011;23562;50.540;12.504;2023-01-28T08:30:36;40.40;;;16.42;;
37715;SDS011;23562;50.540;12.504;2023-01-28T08:33:02;26.63;;;11.90;;
37715;SDS011;23562;50.540;12.504;2023-01-28T08:35:28;25.20;;;11.95;;
37715;SDS011;23562;50.540;12.504;2023-01-28T08:37:53;19.43;;;9.47;;
37715;SDS011;23562;50.540;12.504;2023-01-28T08:40:18;18.48;;;9.45;;
37715;SDS011;23562;50.540;12.504;2023-01-28T08:42:47;19.33;;;9.00;;
37715;SDS011;23562;50.540;12.504;2023-01-28T08:45:13;18.42;;;11.48;;
37715;SDS011;23562;50.540;12.504;2023-01-28T08:47:46;17.45;;;10.43;;
37715;SDS011;23562;50.540;12.504;2023-01-28T08:50:11;16.33;;;8.75;;
37715;SDS011;23562;50.540;12.504;2023-01-28T08:52:36;19.02;;;9.52;;
37715;SDS011;23562;50.540;12.504;2023-01-28T08:55:01;19.45;;;9.93;;
37715;SDS011;23562;50.540;12.504;2023-01-28T08:57:26;22.55;;;10.27;;
37715;SDS011;23562;50.540;12.504;2023-01-28T08:59:51;19.65;;;11.02;;
37715;SDS011;23562;50.540;12.504;2023-01-28T09:02:17;21.30;;;10.70;;
37715;SDS011;23562;50.540;12.504;2023-01-28T09:04:42;20.20;;;10.23;;
37715;SDS011;23562;50.540;12.504;2023-01-28T09:07:07;20.75;;;11.82;;
37715;SDS011;23562;50.540;12.504;2023-01-28T09:09:32;22.10;;;12.13;;
37715;SDS011;23562;50.540;12.504;2023-01-28T09:11:57;27.15;;;12.25;;
37715;SDS011;23562;50.540;12.504;2023-01-28T09:14:22;22.00;;;12.30;;
37715;SDS011;23562;50.540;12.504;2023-01-28T09:16:47;18.67;;;11.00;;
37715;SDS011;23562;50.540;12.504;2023-01-28T09:19:12;20.13;;;11.35;;
37715;SDS011;23562;50.540;12.504;2023-01-28T09:21:38;19.33;;;11.33;;
37715;SDS011;23562;50.540;12.504;2023-01-28T09:24:03;32.20;;;15.63;;
37715;SDS011;23562;50.540;12.504;2023-01-28T09:26:29;30.95;;;15.50;;
37715;SDS011;23562;50.540;12.504;2023-01-28T09:28:54;25.77;;;14.18;;
37715;SDS011;23562;50.540;12.504;2023-01-28T09:31:20;25.90;;;13.18;;
37715;SDS011;23562;50.540;12.504;2023-01-28T09:33:46;29.67;;;15.93;;
37715;SDS011;23562;50.540;12.504;2023-01-28T09:36:11;33.42;;;18.92;;
37715;SDS011;23562;50.540;12.504;2023-01-28T09:38:36;20.87;;;13.17;;
37715;SDS011;23562;50.540;12.504;2023-01-28T09:41:02;37.90;;;16.08;;
37715;SDS011;23562;50.540;12.504;2023-01-28T09:43:38;23.33;;;13.80;;
37715;SDS011;23562;50.540;12.504;2023-01-28T09:46:08;28.80;;;14.90;;
37715;SDS011;23562;50.540;12.504;2023-01-28T09:48:37;25.27;;;14.50;;
37715;SDS011;23562;50.540;12.504;2023-01-28T09:51:05;19.20;;;12.48;;
37715;SDS011;23562;50.540;12.504;2023-01-28T09:53:32;20.25;;;13.27;;
37715;SDS011;23562;50.540;12.504;2023-01-28T09:56:01;21.02;;;13.20;;
37715;SDS011;23562;50.540;12.504;2023-01-28T09:58:27;23.73;;;12.43;;
37715;SDS011;23562;50.540;12.504;2023-01-28T10:00:57;18.75;;;11.32;;
37715;SDS011;23562;50.540;12.504;2023-01-28T10:06:18;23.65;;;17.98;;
37715;SDS011;23562;50.540;12.504;2023-01-28T10:08:57;25.45;;;15.30;;
37715;SDS011;23562;50.540;12.504;2023-01-28T10:14:16;22.30;;;13.95;;
37715;SDS011;23562;50.540;12.504;2023-01-28T10:17:30;26.13;;;14.18;;
37715;SDS011;23562;50.540;12.504;2023-01-28T10:19:30;27.17;;;14.20;;
37715;SDS011;23562;50.540;12.504;2023-01-28T10:22:02;28.20;;;15.27;;
37715;SDS011;23562;50.540;12.504;2023-01-28T10:24:30;25.50;;;15.35;;
37715;SDS011;23562;50.540;12.504;2023-01-28T10:26:57;25.15;;;15.45;;
37715;SDS011;23562;50.540;12.504;2023-01-28T10:29:25;26.95;;;15.25;;
37715;SDS011;23562;50.540;12.504;2023-01-28T10:31:54;21.30;;;14.70;;
37715;SDS011;23562;50.540;12.504;2023-01-28T10:34:20;24.85;;;14.02;;
37715;SDS011;23562;50.540;12.504;2023-01-28T10:36:46;18.83;;;12.77;;
37715;SDS011;23562;50.540;12.504;2023-01-28T10:39:12;22.00;;;13.25;;
37715;SDS011;23562;50.540;12.504;2023-01-28T10:41:38;18.98;;;12.75;;
37715;SDS011;23562;50.540;12.504;2023-01-28T10:44:04;20.50;;;11.30;;
37715;SDS011;23562;50.540;12.504;2023-01-28T10:46:31;20.20;;;12.80;;
37715;SDS011;23562;50.540;12.504;2023-01-28T10:51:38;22.38;;;12.10;;
37715;SDS011;23562;50.540;12.504;2023-01-28T10:54:16;15.15;;;9.77;;
37715;SDS011;23562;50.540;12.504;2023-01-28T10:56:42;25.05;;;15.23;;
37715;SDS011;23562;50.540;12.504;2023-01-28T10:59:21;22.10;;;13.05;;
37715;SDS011;23562;50.540;12.504;2023-01-28T11:01:48;22.52;;;14.25;;
37715;SDS011;23562;50.540;12.504;2023-01-28T11:04:18;21.77;;;12.65;;
37715;SDS011;23562;50.540;12.504;2023-01-28T11:06:51;20.48;;;12.52;;
37715;SDS011;23562;50.540;12.504;2023-01-28T11:09:23;24.42;;;14.27;;
37715;SDS011;23562;50.540;12.504;2023-01-28T11:11:48;21.17;;;12.20;;
37715;SDS011;23562;50.540;12.504;2023-01-28T11:14:21;55.47;;;20.63;;
37715;SDS011;23562;50.540;12.504;2023-01-28T11:16:46;72.93;;;24.65;;
37715;SDS011;23562;50.540;12.504;2023-01-28T11:19:11;63.78;;;22.77;;
37715;SDS011;23562;50.540;12.504;2023-01-28T11:21:37;81.63;;;23.30;;
37715;SDS011;23562;50.540;12.504;2023-01-28T11:24:03;55.03;;;16.20;;
37715;SDS011;23562;50.540;12.504;2023-01-28T11:26:30;43.20;;;16.77;;
37715;SDS011;23562;50.540;12.504;2023-01-28T11:28:56;27.13;;;12.27;;
37715;SDS011;23562;50.540;12.504;2023-01-28T11:31:22;10.70;;;6.45;;
37715;SDS011;23562;50.540;12.504;2023-01-28T11:33:49;13.57;;;7.18;;
37715;SDS011;23562;50.540;12.504;2023-01-28T11:36:18;17.15;;;9.73;;
37715;SDS011;23562;50.540;12.504;2023-01-28T11:38:48;28.70;;;13.20;;
37715;SDS011;23562;50.540;12.504;2023-01-28T11:41:13;84.70;;;24.87;;
37715;SDS011;23562;50.540;12.504;2023-01-28T11:43:39;34.75;;;12.88;;
37715;SDS011;23562;50.540;12.504;2023-01-28T11:54:20;25.50;;;12.15;;
37715;SDS011;23562;50.540;12.504;2023-01-28T11:56:54;16.75;;;9.45;;
37715;SDS011;23562;50.540;12.504;2023-01-28T12:01:54;32.33;;;16.52;;
37715;SDS011;23562;50.540;12.504;2023-01-28T12:04:22;47.88;;;20.35;;
37715;SDS011;23562;50.540;12.504;2023-01-28T12:07:06;17.48;;;9.77;;
37715;SDS011;23562;50.540;12.504;2023-01-28T12:09:48;13.10;;;6.80;;
37715;SDS011;23562;50.540;12.504;2023-01-28T12:12:26;13.25;;;6.93;;
37715;SDS011;23562;50.540;12.504;2023-01-28T12:15:09;9.02;;;6.47;;
37715;SDS011;23562;50.540;12.504;2023-01-28T12:25:27;34.50;;;11.47;;
37715;SDS011;23562;50.540;12.504;2023-01-28T12:27:59;38.53;;;10.63;;
37715;SDS011;23562;50.540;12.504;2023-01-28T12:33:02;36.63;;;11.63;;
37715;SDS011;23562;50.540;12.504;2023-01-28T12:41:02;46.47;;;13.70;;
37715;SDS011;23562;50.540;12.504;2023-01-28T12:43:49;51.58;;;13.68;;
37715;SDS011;23562;50.540;12.504;2023-01-28T12:46:17;34.17;;;10.30;;
37715;SDS011;23562;50.540;12.504;2023-01-28T12:48:44;24.98;;;7.90;;
37715;SDS011;23562;50.540;12.504;2023-01-28T12:51:15;17.30;;;6.68;;
37715;SDS011;23562;50.540;12.504;2023-01-28T12:53:48;13.18;;;6.05;;
37715;SDS011;23562;50.540;12.504;2023-01-28T12:56:17;13.95;;;5.50;;
37715;SDS011;23562;50.540;12.504;2023-01-28T13:01:13;10.88;;;5.60;;
37715;SDS011;23562;50.540;12.504;2023-01-28T13:06:08;13.87;;;6.40;;
37715;SDS011;23562;50.540;12.504;2023-01-28T13:08:36;17.95;;;7.32;;
37715;SDS011;23562;50.540;12.504;2023-01-28T13:11:01;11.63;;;6.15;;
37715;SDS011;23562;50.540;12.504;2023-01-28T13:13:37;12.60;;;5.68;;
37715;SDS011;23562;50.540;12.504;2023-01-28T13:16:04;17.92;;;7.20;;
37715;SDS011;23562;50.540;12.504;2023-01-28T13:21:04;21.60;;;8.82;;
37715;SDS011;23562;50.540;12.504;2023-01-28T13:25:55;38.63;;;18.23;;
37715;SDS011;23562;50.540;12.504;2023-01-28T13:28:25;41.97;;;18.45;;
37715;SDS011;23562;50.540;12.504;2023-01-28T13:30:50;32.42;;;14.10;;
37715;SDS011;23562;50.540;12.504;2023-01-28T13:33:28;23.25;;;11.98;;
37715;SDS011;23562;50.540;12.504;2023-01-28T13:35:53;16.70;;;8.57;;
37715;SDS011;23562;50.540;12.504;2023-01-28T13:38:19;15.60;;;7.20;;
37715;SDS011;23562;50.540;12.504;2023-01-28T13:40:58;17.08;;;6.90;;
37715;SDS011;23562;50.540;12.504;2023-01-28T13:45:59;14.60;;;6.25;;
37715;SDS011;23562;50.540;12.504;2023-01-28T13:48:32;13.85;;;7.07;;
37715;SDS011;23562;50.540;12.504;2023-01-28T13:50:58;16.67;;;8.05;;
37715;SDS011;23562;50.540;12.504;2023-01-28T13:53:36;14.90;;;8.02;;
37715;SDS011;23562;50.540;12.504;2023-01-28T13:56:05;11.00;;;6.78;;
37715;SDS011;23562;50.540;12.504;2023-01-28T13:58:50;13.20;;;7.47;;
37715;SDS011;23562;50.540;12.504;2023-01-28T14:14:41;10.90;;;6.22;;
37715;SDS011;23562;50.540;12.504;2023-01-28T14:19:36;11.48;;;6.28;;
37715;SDS011;23562;50.540;12.504;2023-01-28T14:22:06;9.80;;;5.50;;
37715;SDS011;23562;50.540;12.504;2023-01-28T14:24:31;16.10;;;8.23;;
37715;SDS011;23562;50.540;12.504;2023-01-28T14:32:05;13.23;;;8.07;;
37715;SDS011;23562;50.540;12.504;2023-01-28T14:34:31;13.63;;;8.65;;
37715;SDS011;23562;50.540;12.504;2023-01-28T14:36:59;27.95;;;14.57;;
37715;SDS011;23562;50.540;12.504;2023-01-28T14:39:29;23.35;;;11.80;;
37715;SDS011;23562;50.540;12.504;2023-01-28T14:41:56;26.63;;;13.23;;
37715;SDS011;23562;50.540;12.504;2023-01-28T14:44:33;17.17;;;9.23;;
37715;SDS011;23562;50.540;12.504;2023-01-28T14:52:09;17.48;;;9.07;;
37715;SDS011;23562;50.540;12.504;2023-01-28T14:59:47;65.40;;;29.45;;
37715;SDS011;23562;50.540;12.504;2023-01-28T15:02:18;90.00;;;37.40;;
37715;SDS011;23562;50.540;12.504;2023-01-28T15:04:43;105.28;;;44.67;;
37715;SDS011;23562;50.540;12.504;2023-01-28T15:07:16;45.22;;;22.45;;
37715;SDS011;23562;50.540;12.504;2023-01-28T15:09:42;30.25;;;16.58;;
37715;SDS011;23562;50.540;12.504;2023-01-28T15:12:08;62.30;;;25.80;;
37715;SDS011;23562;50.540;12.504;2023-01-28T15:14:33;29.95;;;14.88;;
37715;SDS011;23562;50.540;12.504;2023-01-28T15:16:58;22.48;;;13.15;;
37715;SDS011;23562;50.540;12.504;2023-01-28T15:19:25;23.85;;;10.45;;
37715;SDS011;23562;50.540;12.504;2023-01-28T15:21:53;15.35;;;8.93;;
37715;SDS011;23562;50.540;12.504;2023-01-28T15:24:18;22.55;;;12.55;;
37715;SDS011;23562;50.540;12.504;2023-01-28T15:26:44;19.17;;;10.93;;
37715;SDS011;23562;50.540;12.504;2023-01-28T15:32:05;47.30;;;21.65;;
37715;SDS011;23562;50.540;12.504;2023-01-28T15:34:30;38.60;;;18.27;;
37715;SDS011;23562;50.540;12.504;2023-01-28T15:36:56;28.27;;;12.32;;
37715;SDS011;23562;50.540;12.504;2023-01-28T15:39:22;29.45;;;12.05;;
37715;SDS011;23562;50.540;12.504;2023-01-28T15:41:51;25.60;;;11.73;;
37715;SDS011;23562;50.540;12.504;2023-01-28T15:44:18;28.83;;;13.87;;
37715;SDS011;23562;50.540;12.504;2023-01-28T15:46:46;30.15;;;13.10;;
37715;SDS011;23562;50.540;12.504;2023-01-28T15:49:14;18.70;;;10.73;;
37715;SDS011;23562;50.540;12.504;2023-01-28T15:51:40;16.65;;;9.88;;
37715;SDS011;23562;50.540;12.504;2023-01-28T15:54:06;22.57;;;11.57;;
37715;SDS011;23562;50.540;12.504;2023-01-28T15:56:32;15.93;;;10.27;;
37715;SDS011;23562;50.540;12.504;2023-01-28T15:59:07;18.50;;;11.63;;
37715;SDS011;23562;50.540;12.504;2023-01-28T16:01:33;14.93;;;9.00;;
37715;SDS011;23562;50.540;12.504;2023-01-28T16:03:59;12.82;;;7.75;;
37715;SDS011;23562;50.540;12.504;2023-01-28T16:06:27;15.68;;;8.73;;